sensor_id;sensor_type;location;lat;lon;timestamp;P1;durP1;ratioP1;P2;durP2;ratioP2
49852;SDS011;35751;48.072;11.688;2023-05-07T00:00:08;10.18;;;7.20;;
49852;SDS011;35751;48.072;11.688;2023-05-07T00:02:33;8.18;;;6.50;;
49852;SDS011;35751;48.072;11.688;2023-05-07T00:04:59;10.95;;;6.95;;
49852;SDS011;35751;48.072;11.688;2023-05-07T00:07:24;15.52;;;6.57;;
49852;SDS011;35751;48.072;11.688;2023-05-07T00:09:50;9.50;;;7.05;;
49852;SDS011;35751;48.072;11.688;2023-05-07T00:12:15;8.65;;;6.85;;
49852;SDS011;35751;48.072;11.688;2023-05-07T00:14:41;9.43;;;7.63;;
49852;SDS011;35751;48.072;11.688;2023-05-07T00:17:06;8.57;;;6.20;;
49852;SDS011;35751;48.072;11.688;2023-05-07T00:19:31;9.10;;;7.15;;
49852;SDS011;35751;48.072;11.688;2023-05-07T00:21:57;7.63;;;6.07;;
49852;SDS011;35751;48.072;11.688;2023-05-07T00:24:23;10.07;;;6.47;;
49852;SDS011;35751;48.072;11.688;2023-05-07T00:26:49;10.18;;;7.18;;
49852;SDS011;35751;48.072;11.688;2023-05-07T00:29:14;7.22;;;5.60;;
49852;SDS011;35751;48.072;11.688;2023-05-07T00:31:40;6.78;;;5.32;;
49852;SDS011;35751;48.072;11.688;2023-05-07T00:34:05;6.07;;;5.13;;
49852;SDS011;35751;48.072;11.688;2023-05-07T00:36:31;10.43;;;5.43;;
49852;SDS011;35751;48.072;11.688;2023-05-07T00:38:57;5.75;;;4.72;;
49852;SDS011;35751;48.072;11.688;2023-05-07T00:41:24;6.07;;;5.05;;
49852;SDS011;35751;48.072;11.688;2023-05-07T00:43:50;7.22;;;5.70;;
49852;SDS011;35751;48.072;11.688;2023-05-07T00:46:16;8.63;;;5.70;;
49852;SDS011;35751;48.072;11.688;2023-05-07T00:48:42;6.45;;;4.63;;
49852;SDS011;35751;48.072;11.688;2023-05-07T00:51:07;7.45;;;5.15;;
49852;SDS011;35751;48.072;11.688;2023-05-07T00:53:36;6.82;;;4.93;;
49852;SDS011;35751;48.072;11.688;2023-05-07T00:56:01;7.22;;;5.30;;
49852;SDS011;35751;48.072;11.688;2023-05-07T00:58:27;6.47;;;5.82;;
49852;SDS011;35751;48.072;11.688;2023-05-07T01:00:52;8.27;;;6.60;;
49852;SDS011;35751;48.072;11.688;2023-05-07T01:03:17;8.15;;;5.47;;
49852;SDS011;35751;48.072;11.688;2023-05-07T01:05:43;6.70;;;5.38;;
49852;SDS011;35751;48.072;11.688;2023-05-07T01:08:10;7.00;;;5.90;;
49852;SDS011;35751;48.072;11.688;2023-05-07T01:10:35;7.72;;;5.90;;
49852;SDS011;35751;48.072;11.688;2023-05-07T01:13:00;7.90;;;5.35;;
49852;SDS011;35751;48.072;11.688;2023-05-07T01:15:26;8.50;;;5.60;;
49852;SDS011;35751;48.072;11.688;2023-05-07T01:17:52;6.78;;;5.63;;
49852;SDS011;35751;48.072;11.688;2023-05-07T01:20:17;7.82;;;6.18;;
49852;SDS011;35751;48.072;11.688;2023-05-07T01:22:43;10.85;;;5.85;;
49852;SDS011;35751;48.072;11.688;2023-05-07T01:25:08;7.30;;;5.75;;
49852;SDS011;35751;48.072;11.688;2023-05-07T01:27:34;8.63;;;6.63;;
49852;SDS011;35751;48.072;11.688;2023-05-07T01:30:01;6.43;;;5.03;;
49852;SDS011;35751;48.072;11.688;2023-05-07T01:35:15;7.03;;;5.95;;
49852;SDS011;35751;48.072;11.688;2023-05-07T01:37:44;7.82;;;5.85;;
49852;SDS011;35751;48.072;11.688;2023-05-07T01:40:10;7.78;;;5.80;;
49852;SDS011;35751;48.072;11.688;2023-05-07T01:42:35;7.95;;;6.03;;
49852;SDS011;35751;48.072;11.688;2023-05-07T01:45:01;6.82;;;5.47;;
49852;SDS011;35751;48.072;11.688;2023-05-07T01:47:27;9.68;;;6.53;;
49852;SDS011;35751;48.072;11.688;2023-05-07T01:49:52;8.65;;;6.00;;
49852;SDS011;35751;48.072;11.688;2023-05-07T01:52:18;7.55;;;5.75;;
49852;SDS011;35751;48.072;11.688;2023-05-07T01:54:43;9.02;;;6.18;;
49852;SDS011;35751;48.072;11.688;2023-05-07T01:57:08;9.48;;;7.05;;
49852;SDS011;35751;48.072;11.688;2023-05-07T01:59:34;8.88;;;7.03;;
49852;SDS011;35751;48.072;11.688;2023-05-07T02:01:59;8.95;;;5.75;;
49852;SDS011;35751;48.072;11.688;2023-05-07T02:04:25;7.28;;;5.47;;
49852;SDS011;35751;48.072;11.688;2023-05-07T02:06:51;11.05;;;7.03;;
49852;SDS011;35751;48.072;11.688;2023-05-07T02:09:17;8.63;;;6.13;;
49852;SDS011;35751;48.072;11.688;2023-05-07T02:11:43;9.00;;;6.50;;
49852;SDS011;35751;48.072;11.688;2023-05-07T02:14:08;9.10;;;6.30;;
49852;SDS011;35751;48.072;11.688;2023-05-07T02:16:33;10.07;;;6.57;;
49852;SDS011;35751;48.072;11.688;2023-05-07T02:18:59;7.22;;;6.13;;
49852;SDS011;35751;48.072;11.688;2023-05-07T02:21:24;7.75;;;6.22;;
49852;SDS011;35751;48.072;11.688;2023-05-07T02:23:50;8.75;;;5.97;;
49852;SDS011;35751;48.072;11.688;2023-05-07T02:26:15;10.65;;;6.85;;
49852;SDS011;35751;48.072;11.688;2023-05-07T02:28:41;8.15;;;5.90;;
49852;SDS011;35751;48.072;11.688;2023-05-07T02:31:06;8.23;;;6.95;;
49852;SDS011;35751;48.072;11.688;2023-05-07T02:33:32;12.20;;;6.80;;
49852;SDS011;35751;48.072;11.688;2023-05-07T02:36:04;13.30;;;7.50;;
49852;SDS011;35751;48.072;11.688;2023-05-07T02:38:30;8.75;;;7.10;;
49852;SDS011;35751;48.072;11.688;2023-05-07T02:40:56;7.80;;;6.40;;
49852;SDS011;35751;48.072;11.688;2023-05-07T02:43:21;12.07;;;6.30;;
49852;SDS011;35751;48.072;11.688;2023-05-07T02:45:46;8.25;;;6.75;;
49852;SDS011;35751;48.072;11.688;2023-05-07T02:48:12;7.72;;;6.72;;
49852;SDS011;35751;48.072;11.688;2023-05-07T02:50:37;9.32;;;7.18;;
49852;SDS011;35751;48.072;11.688;2023-05-07T02:53:02;8.45;;;6.35;;
49852;SDS011;35751;48.072;11.688;2023-05-07T02:55:28;11.90;;;6.57;;
49852;SDS011;35751;48.072;11.688;2023-05-07T02:57:53;8.65;;;6.25;;
49852;SDS011;35751;48.072;11.688;2023-05-07T03:00:19;7.10;;;6.20;;
49852;SDS011;35751;48.072;11.688;2023-05-07T03:02:45;7.78;;;6.00;;
49852;SDS011;35751;48.072;11.688;2023-05-07T03:05:10;11.52;;;6.40;;
49852;SDS011;35751;48.072;11.688;2023-05-07T03:07:36;7.97;;;6.20;;
49852;SDS011;35751;48.072;11.688;2023-05-07T03:10:02;6.38;;;5.72;;
49852;SDS011;35751;48.072;11.688;2023-05-07T03:12:28;8.43;;;6.05;;
49852;SDS011;35751;48.072;11.688;2023-05-07T03:14:54;7.00;;;6.03;;
49852;SDS011;35751;48.072;11.688;2023-05-07T03:17:20;9.18;;;6.22;;
49852;SDS011;35751;48.072;11.688;2023-05-07T03:19:46;11.30;;;6.28;;
49852;SDS011;35751;48.072;11.688;2023-05-07T03:22:12;10.35;;;6.18;;
49852;SDS011;35751;48.072;11.688;2023-05-07T03:24:37;10.00;;;7.38;;
49852;SDS011;35751;48.072;11.688;2023-05-07T03:27:02;7.97;;;6.22;;
49852;SDS011;35751;48.072;11.688;2023-05-07T03:29:28;12.88;;;6.50;;
49852;SDS011;35751;48.072;11.688;2023-05-07T03:31:53;8.50;;;6.20;;
49852;SDS011;35751;48.072;11.688;2023-05-07T03:34:18;8.82;;;5.90;;
49852;SDS011;35751;48.072;11.688;2023-05-07T03:36:47;10.70;;;6.75;;
49852;SDS011;35751;48.072;11.688;2023-05-07T03:39:16;7.45;;;5.60;;
49852;SDS011;35751;48.072;11.688;2023-05-07T03:41:41;6.72;;;5.97;;
49852;SDS011;35751;48.072;11.688;2023-05-07T03:44:06;10.20;;;6.00;;
49852;SDS011;35751;48.072;11.688;2023-05-07T03:46:32;6.38;;;5.78;;
49852;SDS011;35751;48.072;11.688;2023-05-07T03:48:58;7.72;;;5.85;;
49852;SDS011;35751;48.072;11.688;2023-05-07T03:51:23;9.57;;;6.88;;
49852;SDS011;35751;48.072;11.688;2023-05-07T03:53:49;8.48;;;6.55;;
49852;SDS011;35751;48.072;11.688;2023-05-07T03:56:14;6.32;;;5.63;;
49852;SDS011;35751;48.072;11.688;2023-05-07T03:58:39;6.88;;;5.93;;
49852;SDS011;35751;48.072;11.688;2023-05-07T04:01:05;7.93;;;5.80;;
49852;SDS011;35751;48.072;11.688;2023-05-07T04:03:30;7.63;;;6.30;;
49852;SDS011;35751;48.072;11.688;2023-05-07T04:05:55;6.32;;;5.03;;
49852;SDS011;35751;48.072;11.688;2023-05-07T04:08:21;9.38;;;5.75;;
49852;SDS011;35751;48.072;11.688;2023-05-07T04:10:46;7.75;;;6.15;;
49852;SDS011;35751;48.072;11.688;2023-05-07T04:13:11;8.70;;;6.13;;
49852;SDS011;35751;48.072;11.688;2023-05-07T04:15:37;8.95;;;5.38;;
49852;SDS011;35751;48.072;11.688;2023-05-07T04:18:02;9.20;;;6.47;;
49852;SDS011;35751;48.072;11.688;2023-05-07T04:20:27;7.15;;;4.85;;
49852;SDS011;35751;48.072;11.688;2023-05-07T04:22:53;10.13;;;5.45;;
49852;SDS011;35751;48.072;11.688;2023-05-07T04:25:18;6.90;;;5.05;;
49852;SDS011;35751;48.072;11.688;2023-05-07T04:27:43;6.30;;;5.70;;
49852;SDS011;35751;48.072;11.688;2023-05-07T04:30:09;6.53;;;5.45;;
49852;SDS011;35751;48.072;11.688;2023-05-07T04:32:35;10.23;;;5.57;;
49852;SDS011;35751;48.072;11.688;2023-05-07T04:35:02;11.13;;;5.25;;
49852;SDS011;35751;48.072;11.688;2023-05-07T04:37:27;6.90;;;5.55;;
49852;SDS011;35751;48.072;11.688;2023-05-07T04:39:53;7.82;;;5.22;;
49852;SDS011;35751;48.072;11.688;2023-05-07T04:42:18;6.68;;;5.45;;
49852;SDS011;35751;48.072;11.688;2023-05-07T04:44:44;7.53;;;5.75;;
49852;SDS011;35751;48.072;11.688;2023-05-07T04:47:10;6.43;;;5.30;;
49852;SDS011;35751;48.072;11.688;2023-05-07T04:49:36;8.30;;;5.60;;
49852;SDS011;35751;48.072;11.688;2023-05-07T04:52:02;6.95;;;5.50;;
49852;SDS011;35751;48.072;11.688;2023-05-07T04:54:28;5.88;;;5.22;;
49852;SDS011;35751;48.072;11.688;2023-05-07T04:56:53;7.75;;;5.25;;
49852;SDS011;35751;48.072;11.688;2023-05-07T04:59:18;7.90;;;5.93;;
49852;SDS011;35751;48.072;11.688;2023-05-07T05:01:44;7.78;;;5.95;;
49852;SDS011;35751;48.072;11.688;2023-05-07T05:04:09;8.82;;;6.05;;
49852;SDS011;35751;48.072;11.688;2023-05-07T05:06:35;9.25;;;6.35;;
49852;SDS011;35751;48.072;11.688;2023-05-07T05:09:00;7.10;;;6.05;;
49852;SDS011;35751;48.072;11.688;2023-05-07T05:11:26;8.15;;;6.50;;
49852;SDS011;35751;48.072;11.688;2023-05-07T05:13:51;7.18;;;5.82;;
49852;SDS011;35751;48.072;11.688;2023-05-07T05:16:16;6.50;;;5.68;;
49852;SDS011;35751;48.072;11.688;2023-05-07T05:18:41;7.15;;;5.50;;
49852;SDS011;35751;48.072;11.688;2023-05-07T05:21:07;6.47;;;5.38;;
49852;SDS011;35751;48.072;11.688;2023-05-07T05:23:33;7.90;;;7.03;;
49852;SDS011;35751;48.072;11.688;2023-05-07T05:25:58;6.50;;;5.88;;
49852;SDS011;35751;48.072;11.688;2023-05-07T05:28:23;6.95;;;5.53;;
49852;SDS011;35751;48.072;11.688;2023-05-07T05:30:49;6.30;;;5.32;;
49852;SDS011;35751;48.072;11.688;2023-05-07T05:33:15;5.57;;;4.95;;
49852;SDS011;35751;48.072;11.688;2023-05-07T05:35:40;7.28;;;5.55;;
49852;SDS011;35751;48.072;11.688;2023-05-07T05:38:05;7.28;;;4.85;;
49852;SDS011;35751;48.072;11.688;2023-05-07T05:40:31;16.20;;;11.63;;
49852;SDS011;35751;48.072;11.688;2023-05-07T05:42:57;9.27;;;5.93;;
49852;SDS011;35751;48.072;11.688;2023-05-07T05:45:22;10.77;;;5.88;;
49852;SDS011;35751;48.072;11.688;2023-05-07T05:47:47;5.47;;;4.80;;
49852;SDS011;35751;48.072;11.688;2023-05-07T05:50:13;5.97;;;4.82;;
49852;SDS011;35751;48.072;11.688;2023-05-07T05:52:38;6.47;;;5.45;;
49852;SDS011;35751;48.072;11.688;2023-05-07T05:55:03;7.03;;;5.78;;
49852;SDS011;35751;48.072;11.688;2023-05-07T05:57:29;6.82;;;4.93;;
49852;SDS011;35751;48.072;11.688;2023-05-07T05:59:54;5.82;;;5.00;;
49852;SDS011;35751;48.072;11.688;2023-05-07T06:02:20;5.55;;;4.28;;
49852;SDS011;35751;48.072;11.688;2023-05-07T06:04:45;7.30;;;5.10;;
49852;SDS011;35751;48.072;11.688;2023-05-07T06:07:11;6.05;;;4.38;;
49852;SDS011;35751;48.072;11.688;2023-05-07T06:09:36;6.40;;;4.35;;
49852;SDS011;35751;48.072;11.688;2023-05-07T06:12:01;7.18;;;5.38;;
49852;SDS011;35751;48.072;11.688;2023-05-07T06:14:27;5.18;;;4.68;;
49852;SDS011;35751;48.072;11.688;2023-05-07T06:16:52;5.43;;;4.63;;
49852;SDS011;35751;48.072;11.688;2023-05-07T06:19:17;5.05;;;3.88;;
49852;SDS011;35751;48.072;11.688;2023-05-07T06:21:47;4.25;;;3.85;;
49852;SDS011;35751;48.072;11.688;2023-05-07T06:24:13;5.38;;;3.58;;
49852;SDS011;35751;48.072;11.688;2023-05-07T06:26:38;4.68;;;3.75;;
49852;SDS011;35751;48.072;11.688;2023-05-07T06:29:04;4.88;;;3.45;;
49852;SDS011;35751;48.072;11.688;2023-05-07T06:31:30;5.75;;;3.72;;
49852;SDS011;35751;48.072;11.688;2023-05-07T06:33:56;4.53;;;3.65;;
49852;SDS011;35751;48.072;11.688;2023-05-07T06:36:22;4.63;;;4.03;;
49852;SDS011;35751;48.072;11.688;2023-05-07T06:38:47;5.25;;;3.15;;
49852;SDS011;35751;48.072;11.688;2023-05-07T06:41:12;4.38;;;3.58;;
49852;SDS011;35751;48.072;11.688;2023-05-07T06:43:38;5.75;;;4.03;;
49852;SDS011;35751;48.072;11.688;2023-05-07T06:46:03;5.10;;;3.47;;
49852;SDS011;35751;48.072;11.688;2023-05-07T06:48:28;4.90;;;3.33;;
49852;SDS011;35751;48.072;11.688;2023-05-07T06:50:54;13.95;;;12.60;;
49852;SDS011;35751;48.072;11.688;2023-05-07T06:53:22;5.13;;;4.63;;
49852;SDS011;35751;48.072;11.688;2023-05-07T06:55:47;3.03;;;2.67;;
49852;SDS011;35751;48.072;11.688;2023-05-07T06:58:13;3.15;;;2.60;;
49852;SDS011;35751;48.072;11.688;2023-05-07T07:00:38;4.88;;;4.43;;
49852;SDS011;35751;48.072;11.688;2023-05-07T07:03:03;2.97;;;2.65;;
49852;SDS011;35751;48.072;11.688;2023-05-07T07:05:29;3.28;;;2.97;;
49852;SDS011;35751;48.072;11.688;2023-05-07T07:07:54;7.03;;;2.70;;
49852;SDS011;35751;48.072;11.688;2023-05-07T07:10:19;3.05;;;2.47;;
49852;SDS011;35751;48.072;11.688;2023-05-07T07:12:45;4.10;;;2.63;;
49852;SDS011;35751;48.072;11.688;2023-05-07T07:15:10;3.08;;;2.40;;
49852;SDS011;35751;48.072;11.688;2023-05-07T07:17:36;3.53;;;3.08;;
49852;SDS011;35751;48.072;11.688;2023-05-07T07:20:02;4.38;;;3.25;;
49852;SDS011;35751;48.072;11.688;2023-05-07T07:22:27;4.10;;;2.45;;
49852;SDS011;35751;48.072;11.688;2023-05-07T07:24:53;3.20;;;2.30;;
49852;SDS011;35751;48.072;11.688;2023-05-07T07:27:18;6.07;;;2.45;;
49852;SDS011;35751;48.072;11.688;2023-05-07T07:29:43;3.17;;;2.15;;
49852;SDS011;35751;48.072;11.688;2023-05-07T07:32:09;4.05;;;3.28;;
49852;SDS011;35751;48.072;11.688;2023-05-07T07:34:34;2.05;;;1.85;;
49852;SDS011;35751;48.072;11.688;2023-05-07T07:36:59;4.82;;;2.20;;
49852;SDS011;35751;48.072;11.688;2023-05-07T07:39:30;2.70;;;2.17;;
49852;SDS011;35751;48.072;11.688;2023-05-07T07:41:55;6.50;;;2.92;;
49852;SDS011;35751;48.072;11.688;2023-05-07T07:44:21;3.03;;;2.67;;
49852;SDS011;35751;48.072;11.688;2023-05-07T07:46:46;3.47;;;2.30;;
49852;SDS011;35751;48.072;11.688;2023-05-07T07:49:11;2.58;;;2.33;;
49852;SDS011;35751;48.072;11.688;2023-05-07T07:51:37;3.92;;;2.72;;
49852;SDS011;35751;48.072;11.688;2023-05-07T07:54:02;4.85;;;2.80;;
49852;SDS011;35751;48.072;11.688;2023-05-07T07:56:28;5.38;;;2.72;;
49852;SDS011;35751;48.072;11.688;2023-05-07T07:58:53;2.40;;;2.10;;
49852;SDS011;35751;48.072;11.688;2023-05-07T08:01:18;3.95;;;2.85;;
49852;SDS011;35751;48.072;11.688;2023-05-07T08:03:44;4.03;;;2.83;;
49852;SDS011;35751;48.072;11.688;2023-05-07T08:06:10;2.67;;;2.42;;
49852;SDS011;35751;48.072;11.688;2023-05-07T08:08:35;4.57;;;2.83;;
49852;SDS011;35751;48.072;11.688;2023-05-07T08:11:01;4.03;;;3.30;;
49852;SDS011;35751;48.072;11.688;2023-05-07T08:13:26;4.15;;;2.25;;
49852;SDS011;35751;48.072;11.688;2023-05-07T08:15:51;5.18;;;2.60;;
49852;SDS011;35751;48.072;11.688;2023-05-07T08:18:17;3.05;;;2.72;;
49852;SDS011;35751;48.072;11.688;2023-05-07T08:20:43;4.78;;;2.75;;
49852;SDS011;35751;48.072;11.688;2023-05-07T08:23:08;3.55;;;2.47;;
49852;SDS011;35751;48.072;11.688;2023-05-07T08:25:34;3.67;;;2.80;;
49852;SDS011;35751;48.072;11.688;2023-05-07T08:27:59;5.50;;;3.03;;
49852;SDS011;35751;48.072;11.688;2023-05-07T08:30:25;2.33;;;2.08;;
49852;SDS011;35751;48.072;11.688;2023-05-07T08:32:51;6.15;;;3.53;;
49852;SDS011;35751;48.072;11.688;2023-05-07T08:35:16;4.07;;;2.75;;
49852;SDS011;35751;48.072;11.688;2023-05-07T08:37:41;3.15;;;2.80;;
49852;SDS011;35751;48.072;11.688;2023-05-07T08:40:07;4.95;;;2.80;;
49852;SDS011;35751;48.072;11.688;2023-05-07T08:42:34;4.03;;;2.47;;
49852;SDS011;35751;48.072;11.688;2023-05-07T08:45:01;3.58;;;2.75;;
49852;SDS011;35751;48.072;11.688;2023-05-07T08:47:33;3.28;;;2.53;;
49852;SDS011;35751;48.072;11.688;2023-05-07T08:50:04;2.80;;;2.53;;
49852;SDS011;35751;48.072;11.688;2023-05-07T08:52:30;4.82;;;2.33;;
49852;SDS011;35751;48.072;11.688;2023-05-07T08:54:56;4.13;;;3.22;;
49852;SDS011;35751;48.072;11.688;2023-05-07T08:57:21;2.90;;;2.13;;
49852;SDS011;35751;48.072;11.688;2023-05-07T08:59:48;6.65;;;2.67;;
49852;SDS011;35751;48.072;11.688;2023-05-07T09:02:13;6.72;;;2.63;;
49852;SDS011;35751;48.072;11.688;2023-05-07T09:04:39;2.67;;;2.10;;
49852;SDS011;35751;48.072;11.688;2023-05-07T09:07:05;3.13;;;2.55;;
49852;SDS011;35751;48.072;11.688;2023-05-07T09:09:32;3.15;;;2.17;;
49852;SDS011;35751;48.072;11.688;2023-05-07T09:11:57;2.00;;;1.80;;
49852;SDS011;35751;48.072;11.688;2023-05-07T09:14:27;4.18;;;2.13;;
49852;SDS011;35751;48.072;11.688;2023-05-07T09:16:53;4.35;;;2.38;;
49852;SDS011;35751;48.072;11.688;2023-05-07T09:19:24;2.80;;;2.20;;
49852;SDS011;35751;48.072;11.688;2023-05-07T09:21:57;3.83;;;2.92;;
49852;SDS011;35751;48.072;11.688;2023-05-07T09:24:26;6.32;;;2.40;;
49852;SDS011;35751;48.072;11.688;2023-05-07T09:26:53;4.88;;;2.47;;
49852;SDS011;35751;48.072;11.688;2023-05-07T09:29:20;2.55;;;2.35;;
49852;SDS011;35751;48.072;11.688;2023-05-07T09:31:46;2.50;;;2.30;;
49852;SDS011;35751;48.072;11.688;2023-05-07T09:34:11;2.50;;;2.30;;
49852;SDS011;35751;48.072;11.688;2023-05-07T09:36:36;2.92;;;1.75;;
49852;SDS011;35751;48.072;11.688;2023-05-07T09:39:02;2.47;;;2.25;;
49852;SDS011;35751;48.072;11.688;2023-05-07T09:41:27;6.00;;;2.10;;
49852;SDS011;35751;48.072;11.688;2023-05-07T09:43:55;2.00;;;1.80;;
49852;SDS011;35751;48.072;11.688;2023-05-07T09:46:23;5.95;;;2.50;;
49852;SDS011;35751;48.072;11.688;2023-05-07T09:48:50;2.25;;;1.90;;
49852;SDS011;35751;48.072;11.688;2023-05-07T09:51:21;2.58;;;1.77;;
49852;SDS011;35751;48.072;11.688;2023-05-07T09:53:52;4.22;;;2.20;;
49852;SDS011;35751;48.072;11.688;2023-05-07T09:56:18;3.35;;;2.05;;
49852;SDS011;35751;48.072;11.688;2023-05-07T09:58:45;1.85;;;1.65;;
49852;SDS011;35751;48.072;11.688;2023-05-07T10:01:11;2.03;;;1.83;;
49852;SDS011;35751;48.072;11.688;2023-05-07T10:03:37;2.50;;;1.60;;
49852;SDS011;35751;48.072;11.688;2023-05-07T10:06:05;2.05;;;1.90;;
49852;SDS011;35751;48.072;11.688;2023-05-07T10:08:30;2.97;;;1.70;;
49852;SDS011;35751;48.072;11.688;2023-05-07T10:10:56;3.05;;;2.00;;
49852;SDS011;35751;48.072;11.688;2023-05-07T10:13:21;3.05;;;2.75;;
49852;SDS011;35751;48.072;11.688;2023-05-07T10:15:47;3.10;;;1.73;;
49852;SDS011;35751;48.072;11.688;2023-05-07T10:18:12;2.20;;;1.80;;
49852;SDS011;35751;48.072;11.688;2023-05-07T10:20:38;2.50;;;2.03;;
49852;SDS011;35751;48.072;11.688;2023-05-07T10:23:04;2.65;;;2.35;;
49852;SDS011;35751;48.072;11.688;2023-05-07T10:25:31;6.03;;;2.50;;
49852;SDS011;35751;48.072;11.688;2023-05-07T10:27:59;2.38;;;2.17;;
49852;SDS011;35751;48.072;11.688;2023-05-07T10:33:19;2.92;;;2.17;;
49852;SDS011;35751;48.072;11.688;2023-05-07T10:35:47;2.38;;;2.20;;
49852;SDS011;35751;48.072;11.688;2023-05-07T10:38:13;2.10;;;1.90;;
49852;SDS011;35751;48.072;11.688;2023-05-07T10:40:38;3.15;;;2.30;;
49852;SDS011;35751;48.072;11.688;2023-05-07T10:43:05;3.15;;;2.30;;
49852;SDS011;35751;48.072;11.688;2023-05-07T10:45:31;3.75;;;2.38;;
49852;SDS011;35751;48.072;11.688;2023-05-07T10:50:38;2.28;;;1.92;;
49852;SDS011;35751;48.072;11.688;2023-05-07T10:55:42;3.95;;;1.90;;
49852;SDS011;35751;48.072;11.688;2023-05-07T10:58:28;2.15;;;1.88;;
49852;SDS011;35751;48.072;11.688;2023-05-07T11:01:00;3.75;;;2.22;;
49852;SDS011;35751;48.072;11.688;2023-05-07T11:03:26;1.85;;;1.75;;
49852;SDS011;35751;48.072;11.688;2023-05-07T11:08:53;3.25;;;1.98;;
49852;SDS011;35751;48.072;11.688;2023-05-07T11:11:19;1.90;;;1.58;;
49852;SDS011;35751;48.072;11.688;2023-05-07T11:13:46;1.95;;;1.35;;
49852;SDS011;35751;48.072;11.688;2023-05-07T11:16:22;4.10;;;1.58;;
49852;SDS011;35751;48.072;11.688;2023-05-07T11:18:55;2.15;;;1.95;;
49852;SDS011;35751;48.072;11.688;2023-05-07T11:21:33;3.15;;;1.65;;
49852;SDS011;35751;48.072;11.688;2023-05-07T11:24:03;2.75;;;2.42;;
49852;SDS011;35751;48.072;11.688;2023-05-07T11:26:30;3.97;;;2.22;;
49852;SDS011;35751;48.072;11.688;2023-05-07T11:28:57;3.03;;;2.30;;
49852;SDS011;35751;48.072;11.688;2023-05-07T11:31:25;4.35;;;2.20;;
49852;SDS011;35751;48.072;11.688;2023-05-07T11:33:53;2.35;;;2.15;;
49852;SDS011;35751;48.072;11.688;2023-05-07T11:36:19;3.83;;;2.67;;
49852;SDS011;35751;48.072;11.688;2023-05-07T11:38:45;5.32;;;2.35;;
49852;SDS011;35751;48.072;11.688;2023-05-07T11:41:11;9.05;;;2.80;;
49852;SDS011;35751;48.072;11.688;2023-05-07T11:43:36;3.30;;;2.85;;
49852;SDS011;35751;48.072;11.688;2023-05-07T11:46:11;3.42;;;2.58;;
49852;SDS011;35751;48.072;11.688;2023-05-07T11:48:37;2.45;;;2.25;;
49852;SDS011;35751;48.072;11.688;2023-05-07T11:51:04;2.90;;;2.50;;
49852;SDS011;35751;48.072;11.688;2023-05-07T11:53:37;3.38;;;2.30;;
49852;SDS011;35751;48.072;11.688;2023-05-07T11:56:09;3.20;;;2.47;;
49852;SDS011;35751;48.072;11.688;2023-05-07T11:58:36;4.22;;;3.08;;
49852;SDS011;35751;48.072;11.688;2023-05-07T12:01:02;2.88;;;2.58;;
49852;SDS011;35751;48.072;11.688;2023-05-07T12:03:28;5.10;;;3.00;;
49852;SDS011;35751;48.072;11.688;2023-05-07T12:05:53;4.20;;;2.97;;
49852;SDS011;35751;48.072;11.688;2023-05-07T12:08:19;2.42;;;2.22;;
49852;SDS011;35751;48.072;11.688;2023-05-07T12:10:46;3.65;;;2.90;;
49852;SDS011;35751;48.072;11.688;2023-05-07T12:13:20;2.50;;;2.17;;
49852;SDS011;35751;48.072;11.688;2023-05-07T12:15:46;3.08;;;2.80;;
49852;SDS011;35751;48.072;11.688;2023-05-07T12:18:15;3.13;;;2.65;;
49852;SDS011;35751;48.072;11.688;2023-05-07T12:20:40;3.40;;;2.90;;
49852;SDS011;35751;48.072;11.688;2023-05-07T12:23:06;3.25;;;2.60;;
49852;SDS011;35751;48.072;11.688;2023-05-07T12:25:35;5.97;;;3.65;;
49852;SDS011;35751;48.072;11.688;2023-05-07T12:28:04;3.15;;;2.60;;
49852;SDS011;35751;48.072;11.688;2023-05-07T12:30:39;4.45;;;3.00;;
49852;SDS011;35751;48.072;11.688;2023-05-07T12:33:05;4.05;;;3.65;;
49852;SDS011;35751;48.072;11.688;2023-05-07T12:35:31;3.50;;;3.20;;
49852;SDS011;35751;48.072;11.688;2023-05-07T12:37:57;5.60;;;2.88;;
49852;SDS011;35751;48.072;11.688;2023-05-07T12:40:24;5.00;;;4.03;;
49852;SDS011;35751;48.072;11.688;2023-05-07T12:43:00;3.90;;;3.25;;
49852;SDS011;35751;48.072;11.688;2023-05-07T12:45:25;4.22;;;3.03;;
49852;SDS011;35751;48.072;11.688;2023-05-07T12:47:51;3.40;;;2.95;;
49852;SDS011;35751;48.072;11.688;2023-05-07T12:50:16;3.88;;;2.78;;
49852;SDS011;35751;48.072;11.688;2023-05-07T12:52:43;3.25;;;2.95;;
49852;SDS011;35751;48.072;11.688;2023-05-07T12:55:12;2.78;;;2.42;;
49852;SDS011;35751;48.072;11.688;2023-05-07T12:57:42;3.75;;;3.22;;
49852;SDS011;35751;48.072;11.688;2023-05-07T13:00:09;3.10;;;2.80;;
49852;SDS011;35751;48.072;11.688;2023-05-07T13:02:38;3.53;;;3.22;;
49852;SDS011;35751;48.072;11.688;2023-05-07T13:05:04;2.88;;;2.60;;
49852;SDS011;35751;48.072;11.688;2023-05-07T13:07:29;3.03;;;2.65;;
49852;SDS011;35751;48.072;11.688;2023-05-07T13:09:55;3.10;;;2.80;;
49852;SDS011;35751;48.072;11.688;2023-05-07T13:12:20;3.22;;;2.70;;
49852;SDS011;35751;48.072;11.688;2023-05-07T13:14:45;4.22;;;2.47;;
49852;SDS011;35751;48.072;11.688;2023-05-07T13:17:11;2.63;;;2.42;;
49852;SDS011;35751;48.072;11.688;2023-05-07T13:19:36;4.05;;;2.63;;
49852;SDS011;35751;48.072;11.688;2023-05-07T13:22:02;2.97;;;2.40;;
49852;SDS011;35751;48.072;11.688;2023-05-07T13:24:28;2.92;;;2.60;;
49852;SDS011;35751;48.072;11.688;2023-05-07T13:26:53;3.60;;;2.55;;
49852;SDS011;35751;48.072;11.688;2023-05-07T13:29:18;2.85;;;2.40;;
49852;SDS011;35751;48.072;11.688;2023-05-07T13:31:44;5.07;;;2.60;;
49852;SDS011;35751;48.072;11.688;2023-05-07T13:34:10;2.97;;;2.63;;
49852;SDS011;35751;48.072;11.688;2023-05-07T13:36:35;4.20;;;2.90;;
49852;SDS011;35751;48.072;11.688;2023-05-07T13:39:02;3.17;;;2.22;;
49852;SDS011;35751;48.072;11.688;2023-05-07T13:41:28;2.75;;;2.53;;
49852;SDS011;35751;48.072;11.688;2023-05-07T13:43:53;3.65;;;2.20;;
49852;SDS011;35751;48.072;11.688;2023-05-07T13:46:19;4.03;;;2.42;;
49852;SDS011;35751;48.072;11.688;2023-05-07T13:48:44;6.75;;;2.30;;
49852;SDS011;35751;48.072;11.688;2023-05-07T13:51:09;2.80;;;2.47;;
49852;SDS011;35751;48.072;11.688;2023-05-07T13:53:35;4.07;;;2.50;;
49852;SDS011;35751;48.072;11.688;2023-05-07T13:56:01;2.75;;;2.00;;
49852;SDS011;35751;48.072;11.688;2023-05-07T13:58:26;3.25;;;2.10;;
49852;SDS011;35751;48.072;11.688;2023-05-07T14:00:52;2.65;;;2.17;;
49852;SDS011;35751;48.072;11.688;2023-05-07T14:03:17;3.85;;;1.75;;
49852;SDS011;35751;48.072;11.688;2023-05-07T14:05:44;5.68;;;3.78;;
49852;SDS011;35751;48.072;11.688;2023-05-07T14:08:09;7.00;;;2.83;;
49852;SDS011;35751;48.072;11.688;2023-05-07T14:10:35;4.03;;;2.25;;
49852;SDS011;35751;48.072;11.688;2023-05-07T14:13:01;3.33;;;2.35;;
49852;SDS011;35751;48.072;11.688;2023-05-07T14:15:26;4.95;;;2.50;;
49852;SDS011;35751;48.072;11.688;2023-05-07T14:17:51;2.95;;;2.08;;
49852;SDS011;35751;48.072;11.688;2023-05-07T14:20:20;3.50;;;2.65;;
49852;SDS011;35751;48.072;11.688;2023-05-07T14:22:45;3.50;;;2.40;;
49852;SDS011;35751;48.072;11.688;2023-05-07T14:25:10;3.55;;;2.50;;
49852;SDS011;35751;48.072;11.688;2023-05-07T14:27:36;2.78;;;2.47;;
49852;SDS011;35751;48.072;11.688;2023-05-07T14:30:01;4.75;;;2.92;;
49852;SDS011;35751;48.072;11.688;2023-05-07T14:32:26;2.50;;;2.17;;
49852;SDS011;35751;48.072;11.688;2023-05-07T14:34:52;3.00;;;2.30;;
49852;SDS011;35751;48.072;11.688;2023-05-07T14:37:17;2.47;;;1.80;;
49852;SDS011;35751;48.072;11.688;2023-05-07T14:39:44;2.92;;;2.25;;